sensor_id;sensor_type;location;lat;lon;timestamp;pressure;altitude;pressure_sealevel;temperature;humidity
82458;BME280;72081;48.870;11.074;2024-01-30T00:00:16;98688.88;;;-3.31;90.07
82458;BME280;72081;48.870;11.074;2024-01-30T00:02:41;98694.94;;;-3.30;91.49
82458;BME280;72081;48.870;11.074;2024-01-30T00:05:08;98692.13;;;-3.27;91.74
82458;BME280;72081;48.870;11.074;2024-01-30T00:07:33;98691.28;;;-3.28;91.38
82458;BME280;72081;48.870;11.074;2024-01-30T00:09:58;98700.47;;;-3.35;89.92
82458;BME280;72081;48.870;11.074;2024-01-30T00:12:24;98690.75;;;-3.33;91.15
82458;BME280;72081;48.870;11.074;2024-01-30T00:14:49;98696.81;;;-3.32;91.19
82458;BME280;72081;48.870;11.074;2024-01-30T00:17:14;98697.44;;;-3.29;90.77
82458;BME280;72081;48.870;11.074;2024-01-30T00:19:40;98701.75;;;-3.41;89.73
82458;BME280;72081;48.870;11.074;2024-01-30T00:22:05;98707.81;;;-3.40;90.42
82458;BME280;72081;48.870;11.074;2024-01-30T00:24:30;98714.19;;;-3.44;90.05
82458;BME280;72081;48.870;11.074;2024-01-30T00:26:55;98713.00;;;-3.53;90.58
82458;BME280;72081;48.870;11.074;2024-01-30T00:29:21;98705.09;;;-3.51;90.51
82458;BME280;72081;48.870;11.074;2024-01-30T00:31:48;98709.34;;;-3.50;90.38
82458;BME280;72081;48.870;11.074;2024-01-30T00:34:13;98706.63;;;-3.49;90.08
82458;BME280;72081;48.870;11.074;2024-01-30T00:36:38;98710.81;;;-3.33;90.75
82458;BME280;72081;48.870;11.074;2024-01-30T00:39:03;98711.13;;;-3.25;90.61
82458;BME280;72081;48.870;11.074;2024-01-30T00:41:34;98717.81;;;-3.21;90.22
82458;BME280;72081;48.870;11.074;2024-01-30T00:43:59;98727.22;;;-3.44;88.56
82458;BME280;72081;48.870;11.074;2024-01-30T00:46:25;98728.34;;;-3.48;89.36
82458;BME280;72081;48.870;11.074;2024-01-30T00:48:50;98725.97;;;-3.39;90.28
82458;BME280;72081;48.870;11.074;2024-01-30T00:51:15;98720.09;;;-3.29;89.86
82458;BME280;72081;48.870;11.074;2024-01-30T00:53:40;98719.38;;;-3.31;89.39
82458;BME280;72081;48.870;11.074;2024-01-30T00:56:07;98727.13;;;-3.43;89.12
82458;BME280;72081;48.870;11.074;2024-01-30T00:58:33;98723.78;;;-3.57;90.14
82458;BME280;72081;48.870;11.074;2024-01-30T01:00:58;98738.47;;;-3.56;90.96
82458;BME280;72081;48.870;11.074;2024-01-30T01:03:23;98733.88;;;-3.53;90.04
82458;BME280;72081;48.870;11.074;2024-01-30T01:05:48;98734.31;;;-3.46;90.13
82458;BME280;72081;48.870;11.074;2024-01-30T01:08:14;98732.66;;;-3.60;89.83
82458;BME280;72081;48.870;11.074;2024-01-30T01:10:40;98737.75;;;-3.58;89.97
82458;BME280;72081;48.870;11.074;2024-01-30T01:13:05;98737.97;;;-3.61;88.92
82458;BME280;72081;48.870;11.074;2024-01-30T01:15:30;98740.91;;;-3.66;90.71
82458;BME280;72081;48.870;11.074;2024-01-30T01:17:56;98732.75;;;-3.61;90.34
82458;BME280;72081;48.870;11.074;2024-01-30T01:20:21;98725.53;;;-3.58;90.33
82458;BME280;72081;48.870;11.074;2024-01-30T01:22:46;98727.09;;;-3.68;89.81
82458;BME280;72081;48.870;11.074;2024-01-30T01:25:11;98718.97;;;-3.63;90.79
82458;BME280;72081;48.870;11.074;2024-01-30T01:27:37;98723.34;;;-3.77;89.93
82458;BME280;72081;48.870;11.074;2024-01-30T01:30:11;98723.44;;;-3.78;89.81
82458;BME280;72081;48.870;11.074;2024-01-30T01:32:37;98722.63;;;-3.79;90.21
82458;BME280;72081;48.870;11.074;2024-01-30T01:35:03;98721.56;;;-3.76;90.61
82458;BME280;72081;48.870;11.074;2024-01-30T01:37:30;98718.03;;;-3.75;91.03
82458;BME280;72081;48.870;11.074;2024-01-30T01:39:56;98713.84;;;-3.78;90.38
82458;BME280;72081;48.870;11.074;2024-01-30T01:42:21;98713.34;;;-3.83;90.00
82458;BME280;72081;48.870;11.074;2024-01-30T01:46:06;98702.69;;;-3.80;90.46
82458;BME280;72081;48.870;11.074;2024-01-30T01:48:32;98707.28;;;-3.71;90.71
82458;BME280;72081;48.870;11.074;2024-01-30T01:50:58;98700.19;;;-3.69;90.56
82458;BME280;72081;48.870;11.074;2024-01-30T01:53:24;98699.88;;;-3.77;89.30
82458;BME280;72081;48.870;11.074;2024-01-30T01:55:49;98695.47;;;-3.89;89.75
82458;BME280;72081;48.870;11.074;2024-01-30T01:58:15;98689.84;;;-3.95;89.54
82458;BME280;72081;48.870;11.074;2024-01-30T02:00:41;98688.81;;;-3.80;90.36
82458;BME280;72081;48.870;11.074;2024-01-30T02:03:10;98682.97;;;-3.84;90.44
82458;BME280;72081;48.870;11.074;2024-01-30T02:05:36;98682.66;;;-3.92;90.12
82458;BME280;72081;48.870;11.074;2024-01-30T02:08:02;98691.31;;;-3.91;90.66
82458;BME280;72081;48.870;11.074;2024-01-30T02:10:28;98690.28;;;-4.02;89.47
82458;BME280;72081;48.870;11.074;2024-01-30T02:12:53;98687.66;;;-3.89;90.58
82458;BME280;72081;48.870;11.074;2024-01-30T02:15:19;98698.72;;;-3.73;90.86
82458;BME280;72081;48.870;11.074;2024-01-30T02:17:44;98692.66;;;-3.73;90.29
82458;BME280;72081;48.870;11.074;2024-01-30T02:20:10;98697.25;;;-3.89;89.58
82458;BME280;72081;48.870;11.074;2024-01-30T02:22:36;98696.31;;;-4.01;90.08
82458;BME280;72081;48.870;11.074;2024-01-30T02:25:02;98694.66;;;-4.02;90.50
82458;BME280;72081;48.870;11.074;2024-01-30T02:27:27;98697.66;;;-3.95;91.28
82458;BME280;72081;48.870;11.074;2024-01-30T02:29:53;98697.34;;;-3.91;90.38
82458;BME280;72081;48.870;11.074;2024-01-30T02:32:18;98691.41;;;-3.93;89.65
82458;BME280;72081;48.870;11.074;2024-01-30T02:34:43;98689.22;;;-3.99;89.67
82458;BME280;72081;48.870;11.074;2024-01-30T02:37:08;98679.84;;;-4.02;90.19
82458;BME280;72081;48.870;11.074;2024-01-30T02:39:34;98689.31;;;-3.88;89.91
82458;BME280;72081;48.870;11.074;2024-01-30T02:41:59;98681.50;;;-3.88;89.73
82458;BME280;72081;48.870;11.074;2024-01-30T02:44:25;98677.31;;;-3.90;90.00
82458;BME280;72081;48.870;11.074;2024-01-30T02:46:50;98691.38;;;-4.06;89.29
82458;BME280;72081;48.870;11.074;2024-01-30T02:49:15;98687.09;;;-4.19;89.28
82458;BME280;72081;48.870;11.074;2024-01-30T02:51:41;98685.13;;;-4.16;90.19
82458;BME280;72081;48.870;11.074;2024-01-30T02:54:06;98687.69;;;-4.29;89.54
82458;BME280;72081;48.870;11.074;2024-01-30T02:56:31;98690.88;;;-4.23;90.05
82458;BME280;72081;48.870;11.074;2024-01-30T02:58:57;98679.72;;;-4.13;91.06
82458;BME280;72081;48.870;11.074;2024-01-30T03:01:22;98683.56;;;-4.06;90.53
82458;BME280;72081;48.870;11.074;2024-01-30T03:03:49;98676.78;;;-4.08;89.77
82458;BME280;72081;48.870;11.074;2024-01-30T03:06:14;98680.06;;;-4.05;89.52
82458;BME280;72081;48.870;11.074;2024-01-30T03:08:42;98679.41;;;-3.95;89.39
82458;BME280;72081;48.870;11.074;2024-01-30T03:11:07;98678.16;;;-3.90;89.48
82458;BME280;72081;48.870;11.074;2024-01-30T03:13:33;98679.41;;;-3.95;89.29
82458;BME280;72081;48.870;11.074;2024-01-30T03:15:58;98675.66;;;-4.17;88.57
82458;BME280;72081;48.870;11.074;2024-01-30T03:18:23;98678.56;;;-4.21;89.22
82458;BME280;72081;48.870;11.074;2024-01-30T03:20:48;98684.03;;;-4.39;88.62
82458;BME280;72081;48.870;11.074;2024-01-30T03:23:14;98687.34;;;-4.49;87.85
82458;BME280;72081;48.870;11.074;2024-01-30T03:25:39;98683.25;;;-4.53;90.92
82458;BME280;72081;48.870;11.074;2024-01-30T03:28:04;98681.09;;;-4.47;90.95
82458;BME280;72081;48.870;11.074;2024-01-30T03:30:30;98682.16;;;-4.37;91.32
82458;BME280;72081;48.870;11.074;2024-01-30T03:32:55;98674.91;;;-4.19;91.11
82458;BME280;72081;48.870;11.074;2024-01-30T03:35:20;98676.69;;;-4.19;90.05
82458;BME280;72081;48.870;11.074;2024-01-30T03:37:45;98664.16;;;-4.27;89.35
82458;BME280;72081;48.870;11.074;2024-01-30T03:40:11;98664.81;;;-4.23;89.24
82458;BME280;72081;48.870;11.074;2024-01-30T03:42:36;98664.72;;;-4.49;88.69
82458;BME280;72081;48.870;11.074;2024-01-30T03:45:01;98665.19;;;-4.42;88.47
82458;BME280;72081;48.870;11.074;2024-01-30T03:47:27;98668.41;;;-4.26;89.50
82458;BME280;72081;48.870;11.074;2024-01-30T03:49:52;98669.97;;;-4.36;88.63
82458;BME280;72081;48.870;11.074;2024-01-30T03:52:18;98668.78;;;-4.45;88.87
82458;BME280;72081;48.870;11.074;2024-01-30T03:54:43;98670.09;;;-4.38;89.91
82458;BME280;72081;48.870;11.074;2024-01-30T03:57:08;98669.72;;;-4.46;89.24
82458;BME280;72081;48.870;11.074;2024-01-30T03:59:33;98670.38;;;-4.42;90.08
82458;BME280;72081;48.870;11.074;2024-01-30T04:01:59;98679.53;;;-4.49;89.61
82458;BME280;72081;48.870;11.074;2024-01-30T04:04:25;98670.25;;;-4.53;90.19
82458;BME280;72081;48.870;11.074;2024-01-30T04:06:50;98676.22;;;-4.39;90.20
82458;BME280;72081;48.870;11.074;2024-01-30T04:09:15;98672.78;;;-4.39;89.78
82458;BME280;72081;48.870;11.074;2024-01-30T04:11:41;98680.03;;;-4.44;89.97
82458;BME280;72081;48.870;11.074;2024-01-30T04:14:07;98679.56;;;-4.37;89.86
82458;BME280;72081;48.870;11.074;2024-01-30T04:16:32;98670.91;;;-4.37;89.81
82458;BME280;72081;48.870;11.074;2024-01-30T04:18:58;98685.19;;;-4.30;89.34
82458;BME280;72081;48.870;11.074;2024-01-30T04:21:23;98678.94;;;-4.28;88.66
82458;BME280;72081;48.870;11.074;2024-01-30T04:23:48;98680.72;;;-4.28;89.04
82458;BME280;72081;48.870;11.074;2024-01-30T04:26:14;98677.03;;;-4.51;88.51
82458;BME280;72081;48.870;11.074;2024-01-30T04:28:44;98672.41;;;-4.60;89.15
82458;BME280;72081;48.870;11.074;2024-01-30T04:31:09;98669.63;;;-4.44;90.43
82458;BME280;72081;48.870;11.074;2024-01-30T04:34:56;98674.56;;;-4.40;89.56
82458;BME280;72081;48.870;11.074;2024-01-30T04:37:21;98676.75;;;-4.34;89.77
82458;BME280;72081;48.870;11.074;2024-01-30T04:39:46;98681.81;;;-4.45;89.06
82458;BME280;72081;48.870;11.074;2024-01-30T04:42:11;98675.88;;;-4.47;89.93
82458;BME280;72081;48.870;11.074;2024-01-30T04:44:37;98676.59;;;-4.45;90.58
82458;BME280;72081;48.870;11.074;2024-01-30T04:47:02;98676.72;;;-4.46;89.75
82458;BME280;72081;48.870;11.074;2024-01-30T04:49:28;98670.56;;;-4.45;90.27
82458;BME280;72081;48.870;11.074;2024-01-30T04:51:54;98671.84;;;-4.38;90.25
82458;BME280;72081;48.870;11.074;2024-01-30T04:54:19;98666.84;;;-4.29;90.36
82458;BME280;72081;48.870;11.074;2024-01-30T04:56:45;98676.66;;;-4.32;89.67
82458;BME280;72081;48.870;11.074;2024-01-30T04:59:10;98676.03;;;-4.36;90.01
82458;BME280;72081;48.870;11.074;2024-01-30T05:01:35;98678.00;;;-4.39;89.43
82458;BME280;72081;48.870;11.074;2024-01-30T05:04:00;98687.47;;;-4.38;90.34
82458;BME280;72081;48.870;11.074;2024-01-30T05:06:27;98676.34;;;-4.40;89.65
82458;BME280;72081;48.870;11.074;2024-01-30T05:08:53;98676.75;;;-4.34;89.92
82458;BME280;72081;48.870;11.074;2024-01-30T05:11:18;98680.72;;;-4.28;89.99
82458;BME280;72081;48.870;11.074;2024-01-30T05:13:43;98679.88;;;-4.29;89.95
82458;BME280;72081;48.870;11.074;2024-01-30T05:16:08;98681.22;;;-4.36;89.18
82458;BME280;72081;48.870;11.074;2024-01-30T05:18:34;98683.84;;;-4.36;89.01
82458;BME280;72081;48.870;11.074;2024-01-30T05:20:59;98680.72;;;-4.41;90.20
82458;BME280;72081;48.870;11.074;2024-01-30T05:23:24;98688.91;;;-4.47;89.58
82458;BME280;72081;48.870;11.074;2024-01-30T05:25:50;98690.56;;;-4.46;89.92
82458;BME280;72081;48.870;11.074;2024-01-30T05:28:15;98690.56;;;-4.46;89.52
82458;BME280;72081;48.870;11.074;2024-01-30T05:30:40;98690.19;;;-4.40;90.24
82458;BME280;72081;48.870;11.074;2024-01-30T05:33:06;98695.94;;;-4.35;90.23
82458;BME280;72081;48.870;11.074;2024-01-30T05:35:31;98686.97;;;-4.43;89.57
82458;BME280;72081;48.870;11.074;2024-01-30T05:37:56;98700.06;;;-4.45;89.19
82458;BME280;72081;48.870;11.074;2024-01-30T05:40:22;98700.47;;;-4.51;89.76
82458;BME280;72081;48.870;11.074;2024-01-30T05:42:47;98703.59;;;-4.46;89.25
82458;BME280;72081;48.870;11.074;2024-01-30T05:45:13;98700.75;;;-4.55;89.29
82458;BME280;72081;48.870;11.074;2024-01-30T05:47:39;98697.66;;;-4.48;89.81
82458;BME280;72081;48.870;11.074;2024-01-30T05:50:05;98697.28;;;-4.42;89.94
82458;BME280;72081;48.870;11.074;2024-01-30T05:52:30;98701.41;;;-4.52;89.35
82458;BME280;72081;48.870;11.074;2024-01-30T05:54:55;98704.94;;;-4.53;90.22
82458;BME280;72081;48.870;11.074;2024-01-30T05:57:24;98706.81;;;-4.55;89.12
82458;BME280;72081;48.870;11.074;2024-01-30T05:59:49;98712.31;;;-4.60;89.71
82458;BME280;72081;48.870;11.074;2024-01-30T06:02:17;98706.28;;;-4.60;89.83
82458;BME280;72081;48.870;11.074;2024-01-30T06:04:42;98700.88;;;-4.57;89.25
82458;BME280;72081;48.870;11.074;2024-01-30T06:07:07;98706.06;;;-4.57;90.04
82458;BME280;72081;48.870;11.074;2024-01-30T06:09:33;98708.56;;;-4.55;89.85
82458;BME280;72081;48.870;11.074;2024-01-30T06:11:58;98704.94;;;-4.53;90.29
82458;BME280;72081;48.870;11.074;2024-01-30T06:14:23;98707.44;;;-4.51;90.46
82458;BME280;72081;48.870;11.074;2024-01-30T06:16:49;98708.47;;;-4.54;89.84
82458;BME280;72081;48.870;11.074;2024-01-30T06:19:14;98713.25;;;-4.61;89.83
82458;BME280;72081;48.870;11.074;2024-01-30T06:21:40;98712.31;;;-4.60;88.80
82458;BME280;72081;48.870;11.074;2024-01-30T06:24:05;98711.66;;;-4.63;89.50
82458;BME280;72081;48.870;11.074;2024-01-30T06:26:30;98713.53;;;-4.65;89.39
82458;BME280;72081;48.870;11.074;2024-01-30T06:28:55;98707.59;;;-4.67;89.31
82458;BME280;72081;48.870;11.074;2024-01-30T06:31:21;98711.72;;;-4.77;88.72
82458;BME280;72081;48.870;11.074;2024-01-30T06:33:49;98711.22;;;-4.70;89.98
82458;BME280;72081;48.870;11.074;2024-01-30T06:36:15;98708.88;;;-4.60;90.03
82458;BME280;72081;48.870;11.074;2024-01-30T06:38:41;98709.41;;;-4.55;89.58
82458;BME280;72081;48.870;11.074;2024-01-30T06:41:06;98710.44;;;-4.57;89.79
82458;BME280;72081;48.870;11.074;2024-01-30T06:43:32;98710.16;;;-4.53;89.39
82458;BME280;72081;48.870;11.074;2024-01-30T06:45:57;98702.38;;;-4.67;88.74
82458;BME280;72081;48.870;11.074;2024-01-30T06:48:22;98704.25;;;-4.69;89.83
82458;BME280;72081;48.870;11.074;2024-01-30T06:50:48;98706.31;;;-4.74;89.27
82458;BME280;72081;48.870;11.074;2024-01-30T06:53:14;98703.84;;;-4.63;89.58
82458;BME280;72081;48.870;11.074;2024-01-30T06:55:39;98713.69;;;-4.54;89.59
82458;BME280;72081;48.870;11.074;2024-01-30T06:58:05;98709.00;;;-4.49;89.49
82458;BME280;72081;48.870;11.074;2024-01-30T07:00:30;98709.84;;;-4.48;89.36
82458;BME280;72081;48.870;11.074;2024-01-30T07:02:56;98709.22;;;-4.52;88.50
82458;BME280;72081;48.870;11.074;2024-01-30T07:05:21;98712.34;;;-4.47;89.21
82458;BME280;72081;48.870;11.074;2024-01-30T07:07:47;98706.41;;;-4.49;89.47
82458;BME280;72081;48.870;11.074;2024-01-30T07:10:12;98705.78;;;-4.52;89.27
82458;BME280;72081;48.870;11.074;2024-01-30T07:12:37;98706.81;;;-4.55;88.91
82458;BME280;72081;48.870;11.074;2024-01-30T07:15:03;98712.53;;;-4.50;89.53
82458;BME280;72081;48.870;11.074;2024-01-30T07:17:29;98707.22;;;-4.48;89.23
82458;BME280;72081;48.870;11.074;2024-01-30T07:19:54;98724.16;;;-4.41;90.28
82458;BME280;72081;48.870;11.074;2024-01-30T07:23:46;98714.78;;;-4.31;89.42
82458;BME280;72081;48.870;11.074;2024-01-30T07:26:11;98711.50;;;-4.20;89.41
82458;BME280;72081;48.870;11.074;2024-01-30T07:28:37;98716.31;;;-4.14;88.92
82458;BME280;72081;48.870;11.074;2024-01-30T07:31:02;98725.69;;;-4.12;88.72
82458;BME280;72081;48.870;11.074;2024-01-30T07:33:28;98725.00;;;-4.01;87.99
82458;BME280;72081;48.870;11.074;2024-01-30T07:35:53;98728.75;;;-3.92;88.34
82458;BME280;72081;48.870;11.074;2024-01-30T07:38:19;98719.66;;;-3.87;88.25
82458;BME280;72081;48.870;11.074;2024-01-30T07:40:44;98724.56;;;-3.95;87.19
82458;BME280;72081;48.870;11.074;2024-01-30T07:43:10;98740.41;;;-3.98;88.14
82458;BME280;72081;48.870;11.074;2024-01-30T07:45:35;98738.44;;;-3.94;88.91
82458;BME280;72081;48.870;11.074;2024-01-30T07:48:02;98735.00;;;-3.95;89.14
82458;BME280;72081;48.870;11.074;2024-01-30T07:50:27;98732.53;;;-3.84;89.04
82458;BME280;72081;48.870;11.074;2024-01-30T07:52:53;98747.03;;;-3.80;89.14
82458;BME280;72081;48.870;11.074;2024-01-30T07:55:23;98750.78;;;-3.84;90.11
82458;BME280;72081;48.870;11.074;2024-01-30T07:57:54;98748.16;;;-3.71;90.31
82458;BME280;72081;48.870;11.074;2024-01-30T08:00:21;98744.84;;;-3.60;90.31
82458;BME280;72081;48.870;11.074;2024-01-30T08:02:46;98740.97;;;-3.55;89.97
82458;BME280;72081;48.870;11.074;2024-01-30T08:05:11;98743.81;;;-3.45;89.46
82458;BME280;72081;48.870;11.074;2024-01-30T08:07:37;98751.84;;;-3.36;89.60
82458;BME280;72081;48.870;11.074;2024-01-30T08:10:03;98744.25;;;-2.89;89.83
82458;BME280;72081;48.870;11.074;2024-01-30T08:12:28;98737.50;;;-1.39;87.25
82458;BME280;72081;48.870;11.074;2024-01-30T08:14:54;98717.81;;;0.09;80.54
82458;BME280;72081;48.870;11.074;2024-01-30T08:17:19;98725.03;;;1.19;74.58
82458;BME280;72081;48.870;11.074;2024-01-30T08:19:44;98728.91;;;2.13;70.90
82458;BME280;72081;48.870;11.074;2024-01-30T08:22:11;98735.78;;;2.43;68.02
82458;BME280;72081;48.870;11.074;2024-01-30T08:24:37;98729.28;;;2.38;68.79
82458;BME280;72081;48.870;11.074;2024-01-30T08:27:04;98729.28;;;1.90;68.15
82458;BME280;72081;48.870;11.074;2024-01-30T08:29:33;98728.97;;;1.54;70.80
82458;BME280;72081;48.870;11.074;2024-01-30T08:31:58;98737.13;;;1.01;72.72
82458;BME280;72081;48.870;11.074;2024-01-30T08:34:24;98740.13;;;1.17;74.18
82458;BME280;72081;48.870;11.074;2024-01-30T08:36:49;98741.84;;;1.38;73.63
82458;BME280;72081;48.870;11.074;2024-01-30T08:39:15;98743.38;;;1.10;73.60
82458;BME280;72081;48.870;11.074;2024-01-30T08:41:40;98744.25;;;0.80;75.71
82458;BME280;72081;48.870;11.074;2024-01-30T08:44:05;98743.44;;;0.89;76.49
82458;BME280;72081;48.870;11.074;2024-01-30T08:46:31;98750.88;;;0.84;77.43
82458;BME280;72081;48.870;11.074;2024-01-30T08:48:56;98745.94;;;0.60;78.54
82458;BME280;72081;48.870;11.074;2024-01-30T08:51:21;98735.03;;;0.23;80.46
82458;BME280;72081;48.870;11.074;2024-01-30T08:53:47;98741.63;;;0.17;81.60
82458;BME280;72081;48.870;11.074;2024-01-30T08:56:12;98738.72;;;-0.01;83.04
82458;BME280;72081;48.870;11.074;2024-01-30T08:58:37;98738.84;;;0.19;82.14
82458;BME280;72081;48.870;11.074;2024-01-30T09:01:02;98740.78;;;0.17;82.41
82458;BME280;72081;48.870;11.074;2024-01-30T09:03:30;98736.19;;;0.09;83.41
82458;BME280;72081;48.870;11.074;2024-01-30T09:05:55;98740.81;;;-0.15;84.83
82458;BME280;72081;48.870;11.074;2024-01-30T09:08:21;98729.50;;;-0.16;84.90
82458;BME280;72081;48.870;11.074;2024-01-30T09:10:46;98738.78;;;-0.12;84.98
82458;BME280;72081;48.870;11.074;2024-01-30T09:13:11;98730.19;;;-0.14;85.87
82458;BME280;72081;48.870;11.074;2024-01-30T09:15:36;98731.09;;;-0.04;85.78
82458;BME280;72081;48.870;11.074;2024-01-30T09:18:02;98734.13;;;0.13;85.29
82458;BME280;72081;48.870;11.074;2024-01-30T09:20:27;98732.59;;;0.10;85.85
82458;BME280;72081;48.870;11.074;2024-01-30T09:22:52;98730.53;;;-0.07;85.70
82458;BME280;72081;48.870;11.074;2024-01-30T09:25:18;98732.06;;;-0.05;87.42
82458;BME280;72081;48.870;11.074;2024-01-30T09:27:43;98726.06;;;0.05;87.11
82458;BME280;72081;48.870;11.074;2024-01-30T09:30:09;98724.06;;;0.18;86.55
82458;BME280;72081;48.870;11.074;2024-01-30T09:32:34;98732.56;;;0.21;86.69
82458;BME280;72081;48.870;11.074;2024-01-30T09:34:59;98729.22;;;0.19;86.46
82458;BME280;72081;48.870;11.074;2024-01-30T09:37:25;98726.00;;;0.16;86.74
82458;BME280;72081;48.870;11.074;2024-01-30T09:39:50;98723.59;;;0.24;86.59
82458;BME280;72081;48.870;11.074;2024-01-30T09:44:56;98723.63;;;0.54;86.77
82458;BME280;72081;48.870;11.074;2024-01-30T09:47:21;98732.97;;;0.68;86.72
82458;BME280;72081;48.870;11.074;2024-01-30T09:49:47;98738.66;;;0.73;86.71
82458;BME280;72081;48.870;11.074;2024-01-30T09:52:13;98731.94;;;0.80;86.47
82458;BME280;72081;48.870;11.074;2024-01-30T09:54:38;98728.22;;;0.83;86.83
82458;BME280;72081;48.870;11.074;2024-01-30T09:57:04;98726.00;;;0.88;87.28
82458;BME280;72081;48.870;11.074;2024-01-30T09:59:30;98732.72;;;1.02;87.53
82458;BME280;72081;48.870;11.074;2024-01-30T10:01:56;98719.72;;;1.10;87.58
82458;BME280;72081;48.870;11.074;2024-01-30T10:04:22;98732.91;;;1.19;86.25
82458;BME280;72081;48.870;11.074;2024-01-30T10:06:47;98722.28;;;1.31;87.74
82458;BME280;72081;48.870;11.074;2024-01-30T10:09:12;98728.69;;;1.38;86.54
82458;BME280;72081;48.870;11.074;2024-01-30T10:12:39;98723.28;;;1.49;86.22
82458;BME280;72081;48.870;11.074;2024-01-30T10:15:07;98730.81;;;1.63;86.07
82458;BME280;72081;48.870;11.074;2024-01-30T10:17:33;98720.28;;;1.63;86.60
82458;BME280;72081;48.870;11.074;2024-01-30T10:19:58;98717.50;;;1.55;86.97
82458;BME280;72081;48.870;11.074;2024-01-30T10:22:24;98717.75;;;1.52;86.63
82458;BME280;72081;48.870;11.074;2024-01-30T10:24:49;98718.06;;;1.59;86.69
82458;BME280;72081;48.870;11.074;2024-01-30T10:27:14;98711.28;;;1.66;86.08
82458;BME280;72081;48.870;11.074;2024-01-30T10:29:40;98706.00;;;1.66;87.14
82458;BME280;72081;48.870;11.074;2024-01-30T10:32:05;98705.03;;;1.67;86.93
82458;BME280;72081;48.870;11.074;2024-01-30T10:34:31;98709.06;;;1.71;87.16
82458;BME280;72081;48.870;11.074;2024-01-30T10:37:08;98713.09;;;1.75;86.87
82458;BME280;72081;48.870;11.074;2024-01-30T10:39:44;98705.47;;;1.81;86.72
82458;BME280;72081;48.870;11.074;2024-01-30T10:42:14;98703.81;;;1.90;86.61
82458;BME280;72081;48.870;11.074;2024-01-30T10:45:09;98703.28;;;1.96;86.51
82458;BME280;72081;48.870;11.074;2024-01-30T10:47:36;98696.47;;;2.03;86.91
82458;BME280;72081;48.870;11.074;2024-01-30T10:50:02;98697.84;;;2.17;87.13
82458;BME280;72081;48.870;11.074;2024-01-30T10:52:32;98688.53;;;2.32;86.20
82458;BME280;72081;48.870;11.074;2024-01-30T10:54:58;98691.41;;;2.49;85.62
82458;BME280;72081;48.870;11.074;2024-01-30T10:57:24;98693.81;;;2.69;85.28
82458;BME280;72081;48.870;11.074;2024-01-30T10:59:51;98683.81;;;2.83;83.90
82458;BME280;72081;48.870;11.074;2024-01-30T11:02:18;98686.13;;;2.95;84.80
82458;BME280;72081;48.870;11.074;2024-01-30T11:04:45;98674.59;;;2.96;84.91
82458;BME280;72081;48.870;11.074;2024-01-30T11:07:18;98673.63;;;2.97;84.30
82458;BME280;72081;48.870;11.074;2024-01-30T11:09:53;98669.03;;;2.99;85.53
82458;BME280;72081;48.870;11.074;2024-01-30T11:12:22;98666.09;;;3.02;86.30
82458;BME280;72081;48.870;11.074;2024-01-30T11:14:48;98670.25;;;3.05;85.00
82458;BME280;72081;48.870;11.074;2024-01-30T11:17:13;98668.16;;;3.09;84.84
82458;BME280;72081;48.870;11.074;2024-01-30T11:19:41;98662.59;;;3.12;83.99
82458;BME280;72081;48.870;11.074;2024-01-30T11:22:07;98661.75;;;3.11;84.13
82458;BME280;72081;48.870;11.074;2024-01-30T11:24:39;98655.34;;;3.14;84.63
82458;BME280;72081;48.870;11.074;2024-01-30T11:27:08;98650.91;;;3.14;84.23
82458;BME280;72081;48.870;11.074;2024-01-30T11:29:35;98653.41;;;3.16;83.91
82458;BME280;72081;48.870;11.074;2024-01-30T11:32:00;98648.66;;;3.19;84.66
82458;BME280;72081;48.870;11.074;2024-01-30T11:34:26;98651.28;;;3.19;83.74
82458;BME280;72081;48.870;11.074;2024-01-30T11:36:53;98643.22;;;3.21;83.43
82458;BME280;72081;48.870;11.074;2024-01-30T11:39:24;98643.59;;;3.26;83.88
82458;BME280;72081;48.870;11.074;2024-01-30T11:41:51;98643.34;;;3.29;83.88
82458;BME280;72081;48.870;11.074;2024-01-30T11:44:17;98636.25;;;3.29;82.85
82458;BME280;72081;48.870;11.074;2024-01-30T11:46:43;98634.00;;;3.34;82.58
82458;BME280;72081;48.870;11.074;2024-01-30T11:49:08;98634.88;;;3.43;83.61
82458;BME280;72081;48.870;11.074;2024-01-30T11:51:33;98635.97;;;3.50;83.49
82458;BME280;72081;48.870;11.074;2024-01-30T11:53:59;98639.66;;;3.57;82.82
82458;BME280;72081;48.870;11.074;2024-01-30T11:56:24;98629.41;;;3.54;81.48
82458;BME280;72081;48.870;11.074;2024-01-30T11:58:51;98628.41;;;3.55;83.44
82458;BME280;72081;48.870;11.074;2024-01-30T12:01:17;98629.78;;;3.59;83.10
82458;BME280;72081;48.870;11.074;2024-01-30T12:03:43;98629.47;;;3.62;84.07
82458;BME280;72081;48.870;11.074;2024-01-30T12:06:08;98625.16;;;3.61;83.75
82458;BME280;72081;48.870;11.074;2024-01-30T12:08:33;98618.06;;;3.62;83.14
82458;BME280;72081;48.870;11.074;2024-01-30T12:10:59;98623.00;;;3.57;83.56
82458;BME280;72081;48.870;11.074;2024-01-30T12:13:26;98624.50;;;3.59;83.46
82458;BME280;72081;48.870;11.074;2024-01-30T12:15:51;98613.94;;;3.59;83.70
82458;BME280;72081;48.870;11.074;2024-01-30T12:18:20;98616.56;;;3.59;83.59
82458;BME280;72081;48.870;11.074;2024-01-30T12:20:45;98612.28;;;3.58;83.62
82458;BME280;72081;48.870;11.074;2024-01-30T12:23:12;98610.00;;;3.63;83.73
82458;BME280;72081;48.870;11.074;2024-01-30T12:25:38;98608.03;;;3.83;83.07
82458;BME280;72081;48.870;11.074;2024-01-30T12:28:03;98605.16;;;3.94;83.05
82458;BME280;72081;48.870;11.074;2024-01-30T12:30:29;98596.19;;;4.13;82.20
82458;BME280;72081;48.870;11.074;2024-01-30T12:32:55;98594.69;;;4.37;81.38
82458;BME280;72081;48.870;11.074;2024-01-30T12:35:20;98598.41;;;4.52;80.59
82458;BME280;72081;48.870;11.074;2024-01-30T12:37:46;98593.44;;;4.49;80.28
82458;BME280;72081;48.870;11.074;2024-01-30T12:40:14;98605.03;;;4.56;80.52
82458;BME280;72081;48.870;11.074;2024-01-30T12:42:40;98602.44;;;4.64;79.47
82458;BME280;72081;48.870;11.074;2024-01-30T12:45:08;98596.00;;;4.67;79.84
82458;BME280;72081;48.870;11.074;2024-01-30T12:47:33;98588.91;;;4.67;79.69
82458;BME280;72081;48.870;11.074;2024-01-30T12:49:58;98597.53;;;4.77;79.60
82458;BME280;72081;48.870;11.074;2024-01-30T12:52:24;98583.47;;;4.69;79.59